Time;durP1;ratioP1;P1;durP2;ratioP2;P2;SDS_P1;SDS_P2;PMS_P1;PMS_P2;Temp;Humidity;BMP_temperature;BMP_pressure;BME280_temperature;BME280_humidity;BME280_pressure;Samples;Min_cycle;Max_cycle;Signal;HPM_P1;HPM_P2
2021/09/28 00:00:51;;;;;;;5.00;3.20;;;;;;;13.47;54.38;101159.59;117315;1184;22652;-60
2021/09/28 00:03:20;;;;;;;3.90;3.00;;;;;;;13.45;54.33;101157.50;117372;1189;21861;-60
2021/09/28 00:05:49;;;;;;;3.90;2.90;;;;;;;13.44;54.46;101157.85;117321;1185;23544;-60
2021/09/28 00:08:19;;;;;;;4.90;2.90;;;;;;;13.45;54.38;101157.31;117333;1181;23557;-60
2021/09/28 00:10:47;;;;;;;5.20;2.90;;;;;;;13.47;54.28;101156.23;117290;1184;23439;-60
2021/09/28 00:13:16;;;;;;;5.90;3.20;;;;;;;13.46;54.31;101155.19;117339;1183;23542;-60
2021/09/28 00:15:44;;;;;;;4.70;2.80;;;;;;;13.46;54.26;101153.95;117333;1185;21855;-60
2021/09/28 00:18:26;;;;;;;5.30;2.80;;;;;;;13.43;54.19;101152.05;117428;1185;22587;-60
2021/09/28 00:20:54;;;;;;;5.50;2.70;;;;;;;13.49;54.01;101152.14;117289;1185;21858;-60
2021/09/28 00:23:23;;;;;;;3.50;2.50;;;;;;;13.46;54.08;101147.79;117356;1185;23566;-60
2021/09/28 00:25:51;;;;;;;3.80;2.90;;;;;;;13.34;54.13;101143.83;117166;1186;21858;-60
2021/09/28 00:28:20;;;;;;;4.60;2.70;;;;;;;13.29;54.14;101147.23;117340;1185;21857;-60
2021/09/28 00:30:48;;;;;;;4.30;2.70;;;;;;;13.26;54.38;101148.85;117272;1185;23569;-60
2021/09/28 00:33:16;;;;;;;5.00;3.20;;;;;;;13.23;54.24;101151.02;117297;1185;21846;-60
2021/09/28 00:36:09;;;;;;;3.40;2.40;;;;;;;13.21;54.26;101147.86;117397;1185;23544;-60
2021/09/28 00:38:39;;;;;;;4.20;2.30;;;;;;;13.13;54.23;101149.19;117308;1185;23543;-60
2021/09/28 00:41:08;;;;;;;3.20;2.40;;;;;;;13.09;54.17;101145.69;117303;1184;21861;-61
2021/09/28 00:43:44;;;;;;;4.40;2.60;;;;;;;13.09;54.20;101146.92;117343;1185;21902;-60
2021/09/28 00:46:12;;;;;;;8.50;2.00;;;;;;;13.04;54.12;101143.80;117280;1186;22822;-60
2021/09/28 00:48:40;;;;;;;3.30;2.00;;;;;;;12.97;54.04;101149.70;117283;1184;23557;-60
2021/09/28 00:51:09;;;;;;;3.00;1.90;;;;;;;12.89;54.17;101149.41;117382;1185;21845;-60
2021/09/28 00:53:39;;;;;;;3.10;1.80;;;;;;;12.82;54.07;101152.12;117388;1187;21920;-60
2021/09/28 00:56:09;;;;;;;3.00;1.90;;;;;;;12.75;54.05;101153.61;117422;1183;22950;-60
2021/09/28 00:58:38;;;;;;;3.20;1.80;;;;;;;12.68;54.30;101152.77;117308;1183;23710;-60
2021/09/28 01:01:11;;;;;;;3.40;1.80;;;;;;;12.60;54.21;101152.30;117382;1180;21862;-60
2021/09/28 01:03:40;;;;;;;2.60;1.50;;;;;;;12.54;54.09;101153.95;117308;1185;23541;-60
2021/09/28 01:06:08;;;;;;;3.00;1.80;;;;;;;12.56;53.86;101155.88;117291;1185;21860;-60
2021/09/28 01:08:37;;;;;;;3.40;2.10;;;;;;;12.48;53.85;101158.73;117367;1185;21844;-60
2021/09/28 01:11:05;;;;;;;3.40;1.70;;;;;;;12.42;53.78;101154.02;117356;1183;23541;-60
2021/09/28 01:13:53;;;;;;;3.60;1.90;;;;;;;12.34;53.83;101158.86;117096;1189;21868;-60
2021/09/28 01:16:22;;;;;;;3.60;2.00;;;;;;;12.28;53.93;101156.95;117298;1185;21867;-60
2021/09/28 01:18:50;;;;;;;3.30;1.90;;;;;;;12.19;53.72;101158.94;117345;1185;22623;-60
2021/09/28 01:21:20;;;;;;;15.90;2.20;;;;;;;12.08;53.89;101160.95;117369;1185;21859;-60
2021/09/28 01:23:50;;;;;;;2.40;1.60;;;;;;;11.98;54.06;101160.11;117250;1186;23548;-60
2021/09/28 01:26:23;;;;;;;2.80;1.40;;;;;;;11.91;54.03;101161.73;117347;1185;21873;-60
2021/09/28 01:28:53;;;;;;;2.60;1.60;;;;;;;11.83;54.01;101164.05;117315;1182;23642;-60
2021/09/28 01:31:23;;;;;;;3.70;1.80;;;;;;;11.72;54.07;101168.31;117342;1185;21859;-60
2021/09/28 01:33:54;;;;;;;5.00;1.60;;;;;;;11.64;54.21;101166.95;117388;1182;21859;-60
2021/09/28 01:36:23;;;;;;;2.70;1.50;;;;;;;11.58;54.20;101162.58;117355;1184;23545;-60
2021/09/28 01:38:59;;;;;;;3.80;1.50;;;;;;;11.51;54.18;101164.00;117282;1184;23567;-60
2021/09/28 01:41:27;;;;;;;2.80;1.80;;;;;;;11.43;54.12;101164.57;117109;1184;23566;-60
2021/09/28 01:44:06;;;;;;;2.40;1.30;;;;;;;11.37;54.23;101162.64;117327;1185;23557;-60
2021/09/28 01:46:40;;;;;;;2.70;1.50;;;;;;;11.31;54.16;101159.31;117341;1185;23573;-60
2021/09/28 01:49:09;;;;;;;2.90;1.50;;;;;;;11.22;54.12;101162.34;117355;1187;21862;-60
2021/09/28 01:51:37;;;;;;;2.50;1.30;;;;;;;11.15;54.17;101168.15;117387;1183;22889;-60
2021/09/28 01:54:07;;;;;;;4.10;1.50;;;;;;;11.07;54.16;101163.41;117501;1185;21856;-60
2021/09/28 01:56:35;;;;;;;1.80;1.20;;;;;;;11.01;54.22;101167.99;117284;1185;23566;-60
2021/09/28 01:59:04;;;;;;;2.10;1.20;;;;;;;10.97;54.24;101170.11;117304;1183;21858;-60
2021/09/28 02:01:32;;;;;;;3.80;1.60;;;;;;;10.93;54.16;101169.59;117320;1185;21863;-60
2021/09/28 02:04:01;;;;;;;3.50;1.30;;;;;;;10.86;54.29;101165.21;117316;1184;21855;-60
2021/09/28 02:06:37;;;;;;;2.30;1.30;;;;;;;10.80;54.26;101163.98;117347;1185;22508;-60
2021/09/28 02:09:08;;;;;;;3.40;1.40;;;;;;;10.75;54.24;101162.76;117310;1184;21844;-60
2021/09/28 02:11:36;;;;;;;;;;;;;;;10.72;54.32;101163.27;117446;1185;22936;-59
2021/09/28 02:14:11;;;;;;;2.30;1.30;;;;;;;10.68;54.23;101160.29;117317;1185;23638;-61
2021/09/28 02:16:59;;;;;;;2.50;1.20;;;;;;;10.65;54.34;101161.52;117286;1186;21858;-60
2021/09/28 02:19:29;;;;;;;2.50;1.40;;;;;;;10.59;54.38;101162.06;117347;1185;23544;-60
2021/09/28 02:21:57;;;;;;;2.60;1.00;;;;;;;10.56;54.31;101166.09;117313;1185;21899;-60
2021/09/28 02:24:25;;;;;;;3.40;1.80;;;;;;;10.54;54.28;101165.56;117296;1188;21867;-60
2021/09/28 02:26:54;;;;;;;2.80;1.20;;;;;;;10.50;54.44;101166.09;117380;1185;23560;-60
2021/09/28 02:29:22;;;;;;;3.00;1.30;;;;;;;10.47;54.37;101169.42;117409;1185;21845;-60
2021/09/28 02:31:51;;;;;;;2.60;1.50;;;;;;;10.44;54.48;101165.90;117483;1185;23565;-60
2021/09/28 02:34:19;;;;;;;3.30;1.40;;;;;;;10.40;54.39;101169.94;117319;1182;21859;-60
2021/09/28 02:36:47;;;;;;;1.80;0.80;;;;;;;10.36;54.44;101171.84;117368;1183;22520;-60
2021/09/28 02:39:15;;;;;;;2.00;1.10;;;;;;;10.31;54.53;101171.83;117253;1185;21859;-60
2021/09/28 02:41:54;;;;;;;3.80;1.30;;;;;;;10.28;54.42;101175.34;117349;1182;23531;-60
2021/09/28 02:44:22;;;;;;;2.00;1.30;;;;;;;10.25;54.45;101177.25;117408;1185;21855;-60
2021/09/28 02:46:51;;;;;;;3.40;1.30;;;;;;;10.25;54.44;101179.89;117321;1186;22938;-60
2021/09/28 02:49:19;;;;;;;2.20;1.00;;;;;;;10.25;54.58;101179.71;117354;1185;21864;-60
2021/09/28 02:51:58;;;;;;;2.30;1.20;;;;;;;10.23;54.52;101182.15;117342;1185;24051;-60
2021/09/28 02:54:26;;;;;;;2.20;1.10;;;;;;;10.22;54.46;101184.61;117395;1185;23544;-60
2021/09/28 02:56:55;;;;;;;3.60;1.30;;;;;;;10.19;54.52;101187.58;117366;1185;23566;-60
2021/09/28 02:59:23;;;;;;;2.10;1.40;;;;;;;10.18;54.47;101183.71;117339;1185;21848;-60
2021/09/28 03:01:52;;;;;;;4.20;1.40;;;;;;;10.15;54.38;101185.48;117325;1185;23541;-60
2021/09/28 03:04:20;;;;;;;2.70;1.20;;;;;;;10.13;54.40;101183.72;117303;1182;23540;-60
2021/09/28 03:06:48;;;;;;;3.60;1.50;;;;;;;10.11;54.40;101186.86;117333;1185;21862;-60
2021/09/28 03:09:17;;;;;;;2.40;1.60;;;;;;;10.09;54.42;101184.75;117367;1180;21884;-60
2021/09/28 03:11:45;;;;;;;2.20;1.10;;;;;;;10.07;54.37;101191.06;117384;1185;21898;-60
2021/09/28 03:14:14;;;;;;;2.00;1.10;;;;;;;10.03;54.39;101188.08;117263;1184;23544;-60
2021/09/28 03:16:43;;;;;;;2.60;1.30;;;;;;;10.02;54.44;101187.37;117336;1182;24004;-60
2021/09/28 03:19:11;;;;;;;3.10;1.50;;;;;;;10.00;54.51;101187.71;117078;1186;23572;-60
2021/09/28 03:21:48;;;;;;;2.20;1.20;;;;;;;9.97;54.47;101183.66;117294;1183;23544;-60
2021/09/28 03:24:17;;;;;;;3.00;1.60;;;;;;;9.93;54.48;101184.55;117350;1185;22923;-60
2021/09/28 03:26:45;;;;;;;3.90;1.50;;;;;;;9.91;54.43;101189.97;117414;1185;21937;-57
2021/09/28 03:29:14;;;;;;;3.10;1.30;;;;;;;9.89;54.38;101193.48;117373;1185;23132;-60
2021/09/28 03:31:42;;;;;;;3.10;1.40;;;;;;;9.86;54.41;101192.41;117290;1185;24166;-56
2021/09/28 03:34:10;;;;;;;2.60;1.30;;;;;;;9.85;54.41;101191.17;117293;1188;21855;-56
2021/09/28 03:36:39;;;;;;;3.60;1.70;;;;;;;9.82;54.41;101196.06;117274;1182;23546;-56
2021/09/28 03:39:07;;;;;;;3.10;1.60;;;;;;;9.81;54.45;101195.36;117415;1184;23438;-56
2021/09/28 03:41:35;;;;;;;3.20;1.50;;;;;;;9.81;54.61;101194.48;117291;1185;23545;-56
2021/09/28 03:44:04;;;;;;;2.60;1.50;;;;;;;9.82;54.63;101192.91;117324;1183;23549;-56
2021/09/28 03:46:32;;;;;;;7.10;2.30;;;;;;;9.83;54.58;101193.61;117475;1185;23463;-56
2021/09/28 03:49:00;;;;;;;2.60;1.50;;;;;;;9.82;54.67;101190.81;117292;1183;23612;-56
2021/09/28 03:51:28;;;;;;;3.00;1.70;;;;;;;9.82;54.70;101192.21;117327;1185;23557;-56
2021/09/28 03:53:56;;;;;;;3.30;1.90;;;;;;;9.82;54.67;101192.73;117357;1185;23544;-56
2021/09/28 03:56:25;;;;;;;3.70;1.60;;;;;;;9.82;54.68;101189.41;117333;1185;23668;-56
2021/09/28 03:58:53;;;;;;;3.70;1.80;;;;;;;9.81;54.64;101189.05;117293;1186;21940;-60
2021/09/28 04:01:21;;;;;;;4.80;1.80;;;;;;;9.81;54.64;101189.75;117349;1185;21862;-60
2021/09/28 04:03:50;;;;;;;3.70;1.80;;;;;;;9.82;54.74;101195.19;117350;1185;23563;-60
2021/09/28 04:06:18;;;;;;;3.70;2.10;;;;;;;9.83;54.75;101194.48;117399;1184;21854;-60
2021/09/28 04:08:47;;;;;;;4.20;1.90;;;;;;;9.84;54.71;101193.09;117394;1183;24001;-60
2021/09/28 04:11:16;;;;;;;2.90;1.80;;;;;;;9.86;54.87;101195.04;117338;1189;21856;-60
2021/09/28 04:13:47;;;;;;;2.70;1.40;;;;;;;9.88;54.80;101194.86;117262;1189;21861;-60
2021/09/28 04:16:17;;;;;;;3.00;1.80;;;;;;;9.89;54.84;101196.98;117361;1185;22908;-60
2021/09/28 04:18:46;;;;;;;5.00;2.10;;;;;;;9.91;54.82;101201.71;117331;1185;23554;-60
2021/09/28 04:21:14;;;;;;;2.70;1.40;;;;;;;9.91;54.85;101203.12;117431;1180;21858;-60
2021/09/28 04:23:42;;;;;;;3.60;2.00;;;;;;;9.94;54.94;101205.92;117331;1185;23544;-60
2021/09/28 04:26:12;;;;;;;2.90;1.50;;;;;;;9.96;54.81;101210.14;117418;1185;23431;-60
2021/09/28 04:28:41;;;;;;;3.50;2.00;;;;;;;10.00;54.57;101210.85;117324;1184;23567;-60
2021/09/28 04:31:12;;;;;;;3.80;1.80;;;;;;;10.02;54.75;101210.68;117340;1185;21845;-60
2021/09/28 04:33:53;;;;;;;4.10;2.10;;;;;;;10.04;54.93;101214.38;117315;1182;23559;-60
2021/09/28 04:36:22;;;;;;;3.40;1.70;;;;;;;10.08;54.93;101214.58;117340;1185;23544;-60
2021/09/28 04:38:51;;;;;;;4.10;2.00;;;;;;;10.13;54.89;101214.06;117293;1188;21861;-61
2021/09/28 04:41:19;;;;;;;5.30;2.20;;;;;;;10.18;54.92;101216.52;117433;1185;21858;-60
2021/09/28 04:43:49;;;;;;;3.50;2.40;;;;;;;10.23;55.02;101219.52;117432;1181;22625;-61
2021/09/28 04:46:17;;;;;;;4.80;2.00;;;;;;;10.26;55.09;101217.95;117315;1185;21861;-61
2021/09/28 04:48:46;;;;;;;4.60;1.80;;;;;;;10.32;55.22;101216.03;117390;1185;23547;-61
2021/09/28 04:51:14;;;;;;;5.60;2.30;;;;;;;10.38;55.23;101217.64;117322;1185;21848;-60
2021/09/28 04:53:42;;;;;;;6.60;2.50;;;;;;;10.46;55.26;101217.14;117288;1188;21888;-63
2021/09/28 04:56:11;;;;;;;7.50;1.80;;;;;;;10.53;55.25;101219.78;117324;1186;23567;-62
2021/09/28 04:58:39;;;;;;;3.90;2.40;;;;;;;10.60;55.30;101222.08;117298;1185;21864;-61
2021/09/28 05:01:12;;;;;;;3.40;2.00;;;;;;;10.68;55.48;101220.15;117341;1185;21862;-60
2021/09/28 05:03:41;;;;;;;3.50;2.10;;;;;;;10.76;55.26;101217.52;117348;1185;23440;-60
2021/09/28 05:06:09;;;;;;;5.30;2.40;;;;;;;10.85;55.44;101221.90;117300;1184;22619;-60
2021/09/28 05:08:55;;;;;;;4.40;2.20;;;;;;;10.95;55.44;101221.55;117252;1178;23532;-60
2021/09/28 05:11:24;;;;;;;4.30;2.30;;;;;;;11.06;55.42;101218.76;117362;1182;23589;-61
2021/09/28 05:13:52;;;;;;;6.50;2.40;;;;;;;11.17;55.57;101222.42;117291;1185;22638;-60
2021/09/28 05:16:20;;;;;;;5.40;2.20;;;;;;;11.27;55.65;101223.83;117295;1181;23557;-61
2021/09/28 05:18:49;;;;;;;7.90;3.50;;;;;;;11.37;55.66;101225.89;117380;1185;23544;-60
2021/09/28 05:21:17;;;;;;;6.00;2.40;;;;;;;11.48;55.68;101226.77;117428;1185;23611;-60
2021/09/28 05:23:46;;;;;;;5.00;2.90;;;;;;;11.62;55.84;101221.61;117274;1185;21864;-60
2021/09/28 05:26:14;;;;;;;3.80;2.40;;;;;;;11.80;55.84;101219.98;117362;1185;22008;-60
2021/09/28 05:28:42;;;;;;;5.30;2.40;;;;;;;11.99;55.85;101221.31;117345;1185;21899;-60
2021/09/28 05:31:11;;;;;;;5.60;2.70;;;;;;;12.16;55.99;101221.06;117304;1184;21856;-60
2021/09/28 05:33:40;;;;;;;6.10;2.80;;;;;;;12.34;56.04;101228.19;117359;1180;23567;-60
2021/09/28 05:36:08;;;;;;;3.90;2.20;;;;;;;12.52;56.15;101225.61;117274;1181;24025;-61
2021/09/28 05:38:36;;;;;;;5.30;3.00;;;;;;;12.70;56.18;101227.24;117322;1182;23557;-60
2021/09/28 05:41:06;;;;;;;4.00;2.40;;;;;;;12.85;56.18;101226.95;117305;1185;21854;-60
2021/09/28 05:43:36;;;;;;;10.20;2.60;;;;;;;13.01;56.11;101224.87;117329;1184;23557;-61
2021/09/28 05:46:05;;;;;;;6.10;2.80;;;;;;;13.20;56.29;101228.05;117278;1186;23467;-61
2021/09/28 05:48:33;;;;;;;5.20;3.20;;;;;;;13.44;56.40;101230.46;117325;1185;21848;-61
2021/09/28 05:51:02;;;;;;;6.20;2.30;;;;;;;13.69;56.36;101228.79;117322;1189;21848;-61
2021/09/28 05:53:36;;;;;;;6.50;4.40;;;;;;;13.90;56.41;101232.44;117156;1181;21856;-61
2021/09/28 05:56:05;;;;;;;5.40;2.60;;;;;;;14.11;56.40;101234.81;117190;1187;21847;-61
2021/09/28 05:58:34;;;;;;;6.40;3.10;;;;;;;14.35;56.41;101232.90;117322;1184;23678;-62
2021/09/28 06:01:02;;;;;;;7.00;3.20;;;;;;;14.57;56.43;101235.04;117391;1185;23566;-62
2021/09/28 06:03:30;;;;;;;4.30;2.90;;;;;;;14.77;56.51;101238.48;117342;1185;23540;-61
2021/09/28 06:06:00;;;;;;;5.10;2.80;;;;;;;14.98;56.51;101239.55;117404;1184;23542;-61
2021/09/28 06:08:28;;;;;;;5.00;3.00;;;;;;;15.21;56.45;101238.45;117354;1184;22816;-61
2021/09/28 06:10:56;;;;;;;4.70;2.90;;;;;;;15.43;56.48;101238.58;117284;1184;21889;-61
2021/09/28 06:13:26;;;;;;;4.50;3.00;;;;;;;15.63;56.53;101239.44;117259;1185;23472;-61
2021/09/28 06:15:54;;;;;;;6.70;3.20;;;;;;;15.78;56.42;101235.59;117349;1184;22964;-61
2021/09/28 06:18:23;;;;;;;8.50;2.50;;;;;;;15.91;56.39;101238.38;117325;1178;23481;-61
2021/09/28 06:20:51;;;;;;;4.30;3.00;;;;;;;16.10;56.47;101243.64;117082;1187;21859;-62
2021/09/28 06:23:20;;;;;;;6.20;2.90;;;;;;;16.33;56.39;101242.23;117304;1185;22812;-62
2021/09/28 06:25:49;;;;;;;4.30;2.70;;;;;;;16.49;56.33;101246.15;117372;1184;23546;-61
2021/09/28 06:28:18;;;;;;;4.30;2.60;;;;;;;16.60;56.15;101246.94;117277;1185;22063;-62
2021/09/28 06:30:47;;;;;;;4.50;2.60;;;;;;;16.67;55.86;101249.45;117360;1185;21845;-62
2021/09/28 06:33:17;;;;;;;8.40;3.30;;;;;;;16.63;55.69;101250.77;117327;1176;22019;-62
2021/09/28 06:35:46;;;;;;;5.40;2.40;;;;;;;16.60;55.71;101253.51;117354;1184;23544;-61
2021/09/28 06:38:14;;;;;;;3.40;2.30;;;;;;;16.56;55.68;101255.02;117328;1185;22167;-61
2021/09/28 06:40:44;;;;;;;4.70;2.70;;;;;;;16.55;55.73;101257.02;117261;1185;21847;-62
2021/09/28 06:43:12;;;;;;;4.80;2.70;;;;;;;16.57;55.65;101258.38;117262;1185;23483;-62
2021/09/28 06:45:40;;;;;;;5.40;2.90;;;;;;;16.58;55.62;101260.98;117264;1185;21855;-61
2021/09/28 06:48:09;;;;;;;8.10;3.00;;;;;;;16.59;55.80;101258.84;117239;1185;21938;-61
2021/09/28 06:50:38;;;;;;;7.10;2.80;;;;;;;16.64;55.80;101258.73;117322;1185;23566;-61
2021/09/28 06:53:07;;;;;;;4.20;2.40;;;;;;;16.73;55.90;101260.48;117321;1185;21857;-61
2021/09/28 06:55:37;;;;;;;5.80;2.90;;;;;;;16.82;55.94;101261.13;117326;1186;23589;-61
2021/09/28 06:58:05;;;;;;;5.10;2.70;;;;;;;16.95;56.04;101262.42;117308;1185;23557;-61
2021/09/28 07:00:36;;;;;;;6.20;2.70;;;;;;;17.18;56.17;101261.88;117110;1186;23558;-61
2021/09/28 07:03:05;;;;;;;4.30;2.80;;;;;;;17.36;56.21;101262.48;117341;1185;21959;-61
2021/09/28 07:05:33;;;;;;;6.10;3.30;;;;;;;17.57;56.14;101264.77;117257;1185;23567;-61
2021/09/28 07:08:02;;;;;;;4.30;2.70;;;;;;;17.79;56.30;101261.83;117366;1185;22619;-61
2021/09/28 07:10:31;;;;;;;4.80;3.20;;;;;;;17.98;56.22;101259.17;117372;1186;23545;-61
2021/09/28 07:13:11;;;;;;;4.60;2.90;;;;;;;18.11;56.18;101261.64;117302;1180;23567;-61
2021/09/28 07:15:39;;;;;;;4.20;2.90;;;;;;;18.15;56.19;101259.58;117303;1185;21859;-62
2021/09/28 07:18:08;;;;;;;5.20;2.90;;;;;;;18.36;56.26;101261.10;117362;1181;23639;-61
2021/09/28 07:20:37;;;;;;;4.60;3.10;;;;;;;18.67;56.50;101259.94;117252;1186;21856;-61
2021/09/28 07:23:05;;;;;;;4.30;2.90;;;;;;;18.98;56.61;101261.42;117327;1185;22630;-62
2021/09/28 07:25:34;;;;;;;4.70;2.90;;;;;;;19.33;56.71;101255.82;117294;1185;23556;-61
2021/09/28 07:28:03;;;;;;;4.40;2.90;;;;;;;19.68;56.85;101256.04;117321;1183;21897;-61
2021/09/28 07:30:33;;;;;;;7.20;3.10;;;;;;;20.02;56.78;101253.54;117955;1182;21882;-61
2021/09/28 07:33:02;;;;;;;7.90;4.10;;;;;;;20.34;56.73;101254.80;117349;1186;22920;-61
2021/09/28 07:35:31;;;;;;;9.30;4.00;;;;;;;20.69;56.58;101248.80;117341;1183;23439;-61
2021/09/28 07:37:59;;;;;;;5.20;2.80;;;;;;;20.97;56.76;101247.16;117406;1185;23566;-61
2021/09/28 07:40:27;;;;;;;5.60;3.20;;;;;;;21.24;56.69;101247.40;117337;1185;23558;-61
2021/09/28 07:42:56;;;;;;;4.50;2.90;;;;;;;21.46;56.52;101246.99;117299;1184;23542;-61
2021/09/28 07:45:24;;;;;;;5.00;2.80;;;;;;;21.64;56.41;101246.77;117298;1182;22099;-61
2021/09/28 07:47:53;;;;;;;4.30;2.60;;;;;;;21.83;56.29;101246.45;117312;1185;23959;-61
2021/09/28 07:50:21;;;;;;;4.90;2.20;;;;;;;22.03;56.20;101248.19;117375;1185;21867;-61
2021/09/28 07:52:49;;;;;;;4.80;2.40;;;;;;;22.22;56.41;101249.64;117361;1183;23570;-62
2021/09/28 07:55:18;;;;;;;4.30;2.30;;;;;;;22.42;56.48;101246.20;117447;1182;23542;-62
2021/09/28 07:57:53;;;;;;;7.40;3.00;;;;;;;22.63;56.58;101245.05;117301;1182;23568;-62
2021/09/28 08:00:23;;;;;;;3.90;2.80;;;;;;;22.86;56.37;101245.14;117280;1185;23544;-62
2021/09/28 08:02:51;;;;;;;4.50;2.70;;;;;;;23.08;56.24;101244.26;117346;1185;24212;-62
2021/09/28 08:05:21;;;;;;;3.00;2.00;;;;;;;23.27;56.23;101241.48;117352;1185;23605;-62
2021/09/28 08:07:49;;;;;;;5.30;2.40;;;;;;;23.45;56.24;101239.29;117444;1185;23537;-62
2021/09/28 08:10:17;;;;;;;239.60;23.00;;;;;;;23.56;56.23;101234.95;117425;1186;23541;-61
2021/09/28 08:12:53;;;;;;;19.90;4.30;;;;;;;23.61;56.02;101236.16;117375;1182;23541;-62
2021/09/28 08:15:41;;;;;;;15.20;3.40;;;;;;;23.57;55.78;101240.33;117339;1186;22910;-58
2021/09/28 08:18:09;;;;;;;7.30;3.00;;;;;;;23.46;55.78;101241.94;117292;1185;24231;-62
2021/09/28 08:20:38;;;;;;;4.90;2.60;;;;;;;23.44;55.68;101239.73;117312;1185;21848;-62
2021/09/28 08:23:06;;;;;;;4.70;2.30;;;;;;;23.49;55.77;101237.70;117353;1185;22989;-62
2021/09/28 08:31:10;;;;;;;4.40;2.10;;;;;;;23.98;56.19;101233.95;117377;1186;23604;-62
2021/09/28 08:33:38;;;;;;;5.40;2.70;;;;;;;24.13;55.94;101230.64;117405;1183;22725;-62
2021/09/28 08:36:06;;;;;;;10.70;2.60;;;;;;;24.37;56.17;101227.71;117351;1185;21976;-62
2021/09/28 08:38:36;;;;;;;7.70;2.10;;;;;;;24.62;56.31;101224.11;117293;1186;22917;-63
2021/09/28 08:41:08;;;;;;;2.70;1.70;;;;;;;24.86;56.25;101220.98;117253;1182;21864;-62
2021/09/28 08:43:37;;;;;;;5.60;2.30;;;;;;;24.98;55.84;101217.18;117369;1185;21867;-62
2021/09/28 08:46:05;;;;;;;3.10;1.60;;;;;;;24.89;55.52;101215.93;117290;1189;23641;-61
2021/09/28 08:48:33;;;;;;;2.20;1.20;;;;;;;24.80;55.50;101215.77;117337;1182;23557;-62
2021/09/28 08:51:02;;;;;;;2.30;1.30;;;;;;;24.79;55.49;101221.90;117291;1186;21938;-63
2021/09/28 08:53:30;;;;;;;3.10;1.30;;;;;;;24.78;55.37;101218.39;117287;1185;23466;-62
2021/09/28 08:55:58;;;;;;;3.10;1.60;;;;;;;24.74;55.16;101214.48;117362;1185;23560;-62
2021/09/28 08:58:27;;;;;;;1.80;1.20;;;;;;;24.66;55.08;101213.67;117396;1189;21899;-62
2021/09/28 09:01:04;;;;;;;4.80;1.90;;;;;;;24.52;54.69;101212.52;117219;1189;21857;-63
2021/09/28 09:03:36;;;;;;;3.30;1.40;;;;;;;24.28;54.56;101212.07;117143;1186;21896;-63
2021/09/28 09:06:07;;;;;;;2.80;1.60;;;;;;;24.01;54.58;101213.77;117295;1186;23564;-63
2021/09/28 09:08:36;;;;;;;3.00;1.90;;;;;;;23.78;54.52;101213.35;117284;1185;23564;-63
2021/09/28 09:11:09;;;;;;;4.40;1.60;;;;;;;23.61;54.54;101217.88;117344;1185;21850;-63
2021/09/28 09:13:47;;;;;;;9.30;1.50;;;;;;;23.56;54.87;101222.24;117348;1189;21856;-63
2021/09/28 09:16:15;;;;;;;2.00;1.30;;;;;;;23.67;55.09;101221.50;117255;1185;22952;-62
2021/09/28 09:18:48;;;;;;;3.30;1.30;;;;;;;23.90;55.43;101217.71;117326;1182;21931;-62
2021/09/28 09:21:26;;;;;;;2.70;1.30;;;;;;;24.25;55.45;101221.36;117278;1186;23624;-62
2021/09/28 09:23:55;;;;;;;3.50;1.70;;;;;;;24.56;55.50;101215.33;117338;1183;23547;-62
2021/09/28 09:26:27;;;;;;;2.10;1.40;;;;;;;24.88;55.59;101219.05;117400;1185;21864;-62
2021/09/28 09:28:58;;;;;;;2.20;1.30;;;;;;;25.21;55.70;101218.37;117319;1184;23069;-63
2021/09/28 09:31:34;;;;;;;5.10;1.40;;;;;;;25.50;55.49;101222.19;117329;1183;23551;-62
2021/09/28 09:34:06;;;;;;;4.60;1.40;;;;;;;25.65;55.12;101219.30;117310;1184;21856;-61
2021/09/28 09:36:34;;;;;;;2.10;1.40;;;;;;;25.64;54.80;101212.35;117329;1185;23544;-61
2021/09/28 09:39:05;;;;;;;1.70;1.30;;;;;;;25.59;54.69;101211.05;117310;1183;23466;-61
2021/09/28 09:41:33;;;;;;;2.70;1.40;;;;;;;25.61;54.89;101209.30;117325;1185;21948;-61
2021/09/28 09:44:03;;;;;;;2.50;1.30;;;;;;;25.65;54.91;101208.48;117354;1186;23545;-62
2021/09/28 09:46:38;;;;;;;2.20;1.30;;;;;;;25.77;55.12;101204.15;117404;1185;21976;-63
2021/09/28 09:49:06;;;;;;;1.90;1.10;;;;;;;26.03;55.29;101203.05;117295;1182;22103;-64
2021/09/28 09:51:46;;;;;;;2.20;1.10;;;;;;;26.36;55.21;101202.40;117357;1185;21856;-63
2021/09/28 09:54:15;;;;;;;4.20;1.50;;;;;;;26.54;54.74;101205.90;117275;1183;22647;-63
2021/09/28 09:56:49;;;;;;;1.70;1.10;;;;;;;26.53;54.33;101206.45;117441;1183;21860;-62
2021/09/28 09:59:22;;;;;;;2.70;1.30;;;;;;;26.34;54.06;101206.45;117299;1189;22326;-62
2021/09/28 10:01:53;;;;;;;1.30;0.80;;;;;;;26.08;54.06;101210.12;117287;1185;21857;-62
2021/09/28 10:04:22;;;;;;;2.40;1.00;;;;;;;25.86;54.02;101205.71;117342;1185;23034;-62
2021/09/28 10:06:52;;;;;;;1.70;1.20;;;;;;;25.67;53.94;101206.95;117356;1185;21885;-63
2021/09/28 10:09:30;;;;;;;1.80;1.10;;;;;;;25.48;53.93;101210.44;117320;1185;21888;-62
2021/09/28 10:12:00;;;;;;;1.70;1.10;;;;;;;25.27;53.88;101206.67;117338;1185;23567;-62
2021/09/28 10:14:40;;;;;;;2.80;1.30;;;;;;;25.05;53.77;101207.45;117315;1185;22797;-63
2021/09/28 10:17:17;;;;;;;1.50;0.90;;;;;;;24.83;53.73;101212.89;117296;1185;21872;-62
2021/09/28 10:19:52;;;;;;;1.50;1.00;;;;;;;24.56;53.65;101213.90;117290;1183;23586;-62
2021/09/28 10:22:33;;;;;;;1.50;0.90;;;;;;;24.27;53.74;101206.21;117357;1183;22981;-62
2021/09/28 10:25:23;;;;;;;2.40;1.30;;;;;;;24.11;53.83;101209.63;117370;1185;22726;-62
2021/09/28 10:27:56;;;;;;;1.20;0.80;;;;;;;24.17;54.38;101206.58;117313;1184;23547;-62
2021/09/28 10:30:33;;;;;;;2.90;0.90;;;;;;;24.35;54.33;101203.06;117324;1182;23547;-63
2021/09/28 10:33:02;;;;;;;1.20;0.90;;;;;;;24.43;53.98;101206.04;117329;1183;23479;-63
2021/09/28 10:35:33;;;;;;;1.40;0.90;;;;;;;24.45;54.03;101203.91;117274;1185;22927;-63
2021/09/28 10:38:04;;;;;;;2.10;1.00;;;;;;;24.43;54.08;101203.69;117353;1182;22645;-63
2021/09/28 10:40:33;;;;;;;2.70;1.00;;;;;;;24.38;53.83;101200.74;117342;1176;21873;-62
2021/09/28 10:43:03;;;;;;;2.70;1.00;;;;;;;24.31;53.82;101203.84;117318;1183;23487;-62
2021/09/28 10:45:32;;;;;;;;;;;;;;;24.21;53.62;101205.66;117332;1185;22917;-63
2021/09/28 10:48:01;;;;;;;1.20;0.70;;;;;;;24.11;53.56;101208.71;117131;1182;22720;-63
2021/09/28 10:50:36;;;;;;;1.20;0.90;;;;;;;24.03;53.51;101209.55;117292;1185;23539;-62
2021/09/28 10:53:20;;;;;;;2.90;1.00;;;;;;;23.93;53.44;101212.19;117350;1185;21871;-63
2021/09/28 10:56:06;;;;;;;3.50;1.00;;;;;;;23.89;53.24;101210.63;117262;1185;22622;-63
2021/09/28 10:59:01;;;;;;;3.00;0.80;;;;;;;23.88;53.14;101208.70;117282;1186;21877;-62
2021/09/28 11:01:32;;;;;;;1.90;1.00;;;;;;;23.85;53.22;101211.05;117367;1186;24235;-62
2021/09/28 11:04:01;;;;;;;1.30;1.00;;;;;;;23.83;53.13;101214.73;117288;1183;21898;-62
2021/09/28 11:06:49;;;;;;;2.50;1.10;;;;;;;23.84;53.26;101211.45;117314;1185;21900;-62
2021/09/28 11:09:19;;;;;;;1.70;1.20;;;;;;;23.87;53.01;101210.21;117295;1185;22633;-62
2021/09/28 11:11:53;;;;;;;4.10;1.30;;;;;;;23.89;53.02;101208.80;117312;1186;24002;-62
2021/09/28 11:14:38;;;;;;;2.50;1.30;;;;;;;23.89;53.03;101205.80;117319;1185;23567;-62
2021/09/28 11:17:13;;;;;;;4.00;1.50;;;;;;;23.86;52.92;101206.65;117303;1185;23583;-63
2021/09/28 11:19:42;;;;;;;3.10;1.30;;;;;;;23.82;52.98;101208.35;117325;1185;23651;-62
2021/09/28 11:22:16;;;;;;;3.40;1.60;;;;;;;23.81;52.95;101208.54;117291;1185;23815;-62
2021/09/28 11:24:44;;;;;;;16.10;3.90;;;;;;;23.85;52.96;101205.98;117288;1183;23448;-63
2021/09/28 11:27:12;;;;;;;50.20;12.40;;;;;;;23.81;52.92;101203.57;117316;1185;23439;-62
2021/09/28 11:29:41;;;;;;;19.10;6.50;;;;;;;23.76;53.02;101204.49;117248;1186;21915;-62
2021/09/28 11:32:10;;;;;;;19.30;7.00;;;;;;;23.74;52.87;101204.27;117297;1181;23543;-63
2021/09/28 11:34:40;;;;;;;13.90;4.70;;;;;;;23.73;52.78;101205.63;117292;1185;21867;-62
2021/09/28 11:37:23;;;;;;;7.60;2.90;;;;;;;23.65;52.71;101207.46;117254;1182;21866;-63